Time;durP1;ratioP1;P1;durP2;ratioP2;P2;SDS_P1;SDS_P2;PMS_P1;PMS_P2;Temp;Humidity;BMP_temperature;BMP_pressure;BME280_temperature;BME280_humidity;BME280_pressure;Samples;Min_cycle;Max_cycle;Signal;HPM_P1;HPM_P2
2024/04/15 00:00:14;;;;;;;15.82;3.60;;;;;;;;;;5489208;26;20012;-54
2024/04/15 00:02:43;;;;;;;15.63;3.80;;;;;;;;;;5486486;26;20059;-57
2024/04/15 00:05:08;;;;;;;12.07;3.33;;;;;;;;;;5489759;26;20299;-52
2024/04/15 00:07:35;;;;;;;13.83;3.70;;;;;;;;;;5487651;26;20002;-56
2024/04/15 00:10:01;;;;;;;15.90;3.78;;;;;;;;;;5483952;26;20270;-55
2024/04/15 00:12:26;;;;;;;14.63;3.38;;;;;;;;;;5490925;26;20024;-52
2024/04/15 00:14:52;;;;;;;11.93;3.33;;;;;;;;;;5485940;26;19994;-55
2024/04/15 00:17:17;;;;;;;11.68;3.78;;;;;;;;;;5483960;26;19994;-57
2024/04/15 00:19:43;;;;;;;12.50;3.87;;;;;;;;;;5490447;26;20211;-55
2024/04/15 00:22:08;;;;;;;10.77;3.65;;;;;;;;;;5487487;26;20678;-54
2024/04/15 00:24:34;;;;;;;15.13;3.77;;;;;;;;;;5488344;26;19999;-55
2024/04/15 00:27:00;;;;;;;20.92;4.30;;;;;;;;;;5485947;26;20005;-53
2024/04/15 00:29:25;;;;;;;11.27;2.63;;;;;;;;;;5486499;26;20026;-55
2024/04/15 00:31:50;;;;;;;13.55;3.42;;;;;;;;;;5488977;26;20006;-54
2024/04/15 00:34:16;;;;;;;8.73;3.50;;;;;;;;;;5490818;26;20009;-53
2024/04/15 00:36:45;;;;;;;11.63;3.20;;;;;;;;;;5490666;26;20013;-57
2024/04/15 00:39:11;;;;;;;10.53;3.30;;;;;;;;;;5487465;26;19998;-57
2024/04/15 00:41:37;;;;;;;9.27;3.05;;;;;;;;;;5505063;26;20284;-56
2024/04/15 00:44:02;;;;;;;7.90;2.80;;;;;;;;;;5488894;26;19995;-53
2024/04/15 00:46:29;;;;;;;10.20;3.85;;;;;;;;;;5494068;26;20228;-55
2024/04/15 00:48:55;;;;;;;12.20;2.60;;;;;;;;;;5490914;26;20005;-53
2024/04/15 00:51:21;;;;;;;13.70;3.08;;;;;;;;;;5492878;26;19998;-55
2024/04/15 00:53:48;;;;;;;11.60;3.30;;;;;;;;;;5491241;26;19998;-53
2024/04/15 00:56:14;;;;;;;13.88;3.38;;;;;;;;;;5492398;26;20005;-54
2024/04/15 00:58:40;;;;;;;7.60;2.33;;;;;;;;;;5494377;26;20006;-54
2024/04/15 01:01:05;;;;;;;13.43;2.58;;;;;;;;;;5501301;26;20271;-55
2024/04/15 01:03:31;;;;;;;9.30;2.73;;;;;;;;;;5504423;26;20001;-57
2024/04/15 01:05:56;;;;;;;12.67;2.37;;;;;;;;;;5489751;26;20223;-53
2024/04/15 01:08:22;;;;;;;10.90;2.80;;;;;;;;;;5492603;26;20235;-55
2024/04/15 01:10:47;;;;;;;12.13;2.70;;;;;;;;;;5491076;26;20294;-57
2024/04/15 01:13:13;;;;;;;10.53;3.37;;;;;;;;;;5485759;26;20229;-52
2024/04/15 01:15:38;;;;;;;14.20;3.23;;;;;;;;;;5486586;26;20227;-55
2024/04/15 01:18:04;;;;;;;9.70;3.40;;;;;;;;;;5492549;26;20011;-59
2024/04/15 01:20:30;;;;;;;8.48;2.15;;;;;;;;;;5491930;26;20020;-53
2024/04/15 01:23:01;;;;;;;9.52;2.60;;;;;;;;;;5494399;26;20006;-55
2024/04/15 01:25:28;;;;;;;6.43;2.38;;;;;;;;;;5488946;26;20002;-55
2024/04/15 01:27:53;;;;;;;9.50;2.40;;;;;;;;;;5485675;26;20042;-53
2024/04/15 01:30:18;;;;;;;10.77;2.97;;;;;;;;;;5485470;26;20002;-54
2024/04/15 01:32:44;;;;;;;8.40;2.40;;;;;;;;;;5490753;26;20006;-55
2024/04/15 01:35:09;;;;;;;14.55;2.72;;;;;;;;;;5482909;26;19998;-56
2024/04/15 01:37:35;;;;;;;12.57;3.07;;;;;;;;;;5484975;26;20008;-55
2024/04/15 01:40:01;;;;;;;9.87;2.97;;;;;;;;;;5486752;26;20227;-56
2024/04/15 01:42:26;;;;;;;9.10;3.37;;;;;;;;;;5483145;26;20323;-54
2024/04/15 01:44:52;;;;;;;14.27;3.20;;;;;;;;;;5487968;26;20025;-55
2024/04/15 01:47:17;;;;;;;9.50;2.50;;;;;;;;;;5485648;26;20010;-54
2024/04/15 01:49:42;;;;;;;13.23;3.27;;;;;;;;;;5482106;26;20014;-54
2024/04/15 01:52:08;;;;;;;6.75;2.80;;;;;;;;;;5488654;26;20017;-55
2024/04/15 01:54:34;;;;;;;12.07;3.20;;;;;;;;;;5497938;26;19999;-52
2024/04/15 01:57:00;;;;;;;12.10;2.95;;;;;;;;;;5491382;26;20240;-52
2024/04/15 01:59:25;;;;;;;11.27;3.25;;;;;;;;;;5483080;26;20010;-56
2024/04/15 02:01:50;;;;;;;12.90;3.13;;;;;;;;;;5489701;26;19998;-51
2024/04/15 02:04:16;;;;;;;16.17;3.70;;;;;;;;;;5480806;26;20018;-54
2024/04/15 02:06:41;;;;;;;10.00;3.20;;;;;;;;;;5489563;26;20043;-53
2024/04/15 02:09:07;;;;;;;10.07;3.33;;;;;;;;;;5490996;26;20020;-55
2024/04/15 02:11:32;;;;;;;8.23;2.87;;;;;;;;;;5486139;26;19999;-52
2024/04/15 02:13:58;;;;;;;13.63;3.53;;;;;;;;;;5487579;26;20223;-52
2024/04/15 02:16:23;;;;;;;11.27;3.10;;;;;;;;;;5487119;26;20064;-55
2024/04/15 02:18:48;;;;;;;13.50;4.00;;;;;;;;;;5495187;26;20223;-55
2024/04/15 02:21:14;;;;;;;8.85;3.20;;;;;;;;;;5495441;26;20002;-55
2024/04/15 02:23:40;;;;;;;13.97;3.00;;;;;;;;;;5497087;26;20006;-53
2024/04/15 02:26:05;;;;;;;15.77;3.33;;;;;;;;;;5496143;26;20003;-52
2024/04/15 02:28:31;;;;;;;17.53;3.90;;;;;;;;;;5500220;26;20024;-55
2024/04/15 02:30:57;;;;;;;10.15;3.63;;;;;;;;;;5497207;26;20298;-57
2024/04/15 02:33:22;;;;;;;8.57;3.10;;;;;;;;;;5499257;26;20014;-54
2024/04/15 02:35:48;;;;;;;8.40;3.43;;;;;;;;;;5494067;26;20272;-55
2024/04/15 02:38:13;;;;;;;11.65;4.10;;;;;;;;;;5486794;26;20547;-52
2024/04/15 02:40:39;;;;;;;11.88;3.47;;;;;;;;;;5479505;26;20021;-56
2024/04/15 02:43:05;;;;;;;10.87;3.63;;;;;;;;;;5488554;26;20014;-55
2024/04/15 02:45:31;;;;;;;12.90;3.53;;;;;;;;;;5485748;26;20219;-57
2024/04/15 02:47:56;;;;;;;12.95;3.17;;;;;;;;;;5490019;26;20236;-54
2024/04/15 02:50:22;;;;;;;11.30;3.90;;;;;;;;;;5481353;26;20018;-54
2024/04/15 02:52:47;;;;;;;14.53;3.57;;;;;;;;;;5484289;26;20010;-56
2024/04/15 02:55:13;;;;;;;13.35;4.03;;;;;;;;;;5484142;26;20010;-53
2024/04/15 02:57:39;;;;;;;13.43;3.42;;;;;;;;;;5487631;26;19998;-53
2024/04/15 03:00:05;;;;;;;12.37;3.60;;;;;;;;;;5492900;26;20013;-55
2024/04/15 03:02:30;;;;;;;11.68;4.40;;;;;;;;;;5489667;26;20003;-57
2024/04/15 03:04:56;;;;;;;15.10;3.93;;;;;;;;;;5491871;26;20056;-57
2024/04/15 03:07:21;;;;;;;11.23;3.28;;;;;;;;;;5489146;26;20075;-54
2024/04/15 03:09:47;;;;;;;23.13;5.00;;;;;;;;;;5490529;26;20016;-56
2024/04/15 03:12:12;;;;;;;20.00;4.07;;;;;;;;;;5492570;26;19998;-52
2024/04/15 03:14:37;;;;;;;11.52;3.92;;;;;;;;;;5488438;26;20018;-51
2024/04/15 03:17:03;;;;;;;19.38;5.30;;;;;;;;;;5492641;26;20014;-53
2024/04/15 03:19:28;;;;;;;12.93;3.80;;;;;;;;;;5506050;26;20006;-52
2024/04/15 03:21:54;;;;;;;17.97;4.50;;;;;;;;;;5501880;26;20473;-53
2024/04/15 03:24:19;;;;;;;14.23;3.37;;;;;;;;;;5505362;26;20002;-55
2024/04/15 03:26:44;;;;;;;18.97;5.00;;;;;;;;;;5506305;26;20051;-52
2024/04/15 03:29:10;;;;;;;15.43;5.18;;;;;;;;;;5503823;26;20047;-52
2024/04/15 03:31:35;;;;;;;19.10;4.70;;;;;;;;;;5498329;26;20066;-54
2024/04/15 03:34:01;;;;;;;12.33;3.77;;;;;;;;;;5505621;26;20060;-52
2024/04/15 03:36:27;;;;;;;13.87;3.83;;;;;;;;;;5501082;26;20305;-52
2024/04/15 03:38:52;;;;;;;9.07;3.72;;;;;;;;;;5484289;26;20292;-53
2024/04/15 03:41:18;;;;;;;18.30;4.07;;;;;;;;;;5490063;26;21907;-53
2024/04/15 03:43:44;;;;;;;19.77;4.27;;;;;;;;;;5492609;26;20050;-57
2024/04/15 03:46:09;;;;;;;9.85;4.10;;;;;;;;;;5490531;26;20061;-55
2024/04/15 03:48:35;;;;;;;21.40;5.05;;;;;;;;;;5490678;26;20014;-56
2024/04/15 03:51:00;;;;;;;20.57;4.87;;;;;;;;;;5490123;26;20014;-53
2024/04/15 03:53:26;;;;;;;20.77;4.70;;;;;;;;;;5484817;26;20232;-56
2024/04/15 03:55:52;;;;;;;16.73;4.30;;;;;;;;;;5489428;26;20017;-54
2024/04/15 03:58:18;;;;;;;13.50;3.78;;;;;;;;;;5494364;26;20006;-54
2024/04/15 04:00:43;;;;;;;15.40;4.80;;;;;;;;;;5496067;26;20079;-54
2024/04/15 04:03:09;;;;;;;15.50;4.97;;;;;;;;;;5503675;26;20835;-56
2024/04/15 04:05:34;;;;;;;16.50;4.53;;;;;;;;;;5492987;26;20018;-54
2024/04/15 04:07:59;;;;;;;18.00;3.53;;;;;;;;;;5491784;26;19995;-56
2024/04/15 04:10:25;;;;;;;15.40;3.60;;;;;;;;;;5482953;26;20003;-56
2024/04/15 04:12:50;;;;;;;15.27;4.67;;;;;;;;;;5482937;26;20003;-51
2024/04/15 04:15:15;;;;;;;10.30;3.70;;;;;;;;;;5489408;26;20293;-53
2024/04/15 04:17:43;;;;;;;18.07;4.53;;;;;;;;;;5488526;26;20232;-56
2024/04/15 04:20:09;;;;;;;19.40;4.35;;;;;;;;;;5491866;26;20006;-54
2024/04/15 04:22:34;;;;;;;17.77;5.07;;;;;;;;;;5487743;26;19999;-56
2024/04/15 04:25:00;;;;;;;17.77;4.70;;;;;;;;;;5492631;26;20018;-54
2024/04/15 04:27:25;;;;;;;13.13;4.50;;;;;;;;;;5485922;26;20227;-57
2024/04/15 04:29:51;;;;;;;17.57;4.90;;;;;;;;;;5492373;26;20268;-55
2024/04/15 04:32:16;;;;;;;17.80;4.87;;;;;;;;;;5493496;26;20046;-56
2024/04/15 04:34:41;;;;;;;21.30;4.43;;;;;;;;;;5491904;26;20002;-51
2024/04/15 04:37:06;;;;;;;13.93;4.23;;;;;;;;;;5495299;26;20017;-53
2024/04/15 04:39:32;;;;;;;15.60;5.03;;;;;;;;;;5501485;26;20013;-52
2024/04/15 04:41:58;;;;;;;12.10;3.80;;;;;;;;;;5497779;26;20232;-52
2024/04/15 04:44:23;;;;;;;20.13;4.70;;;;;;;;;;5492211;26;20303;-53
2024/04/15 04:46:49;;;;;;;15.13;4.72;;;;;;;;;;5488623;26;20014;-54
2024/04/15 04:49:14;;;;;;;14.77;4.80;;;;;;;;;;5491786;26;20010;-54
2024/04/15 04:51:40;;;;;;;19.63;4.90;;;;;;;;;;5486257;26;20045;-55
2024/04/15 04:54:05;;;;;;;14.80;4.70;;;;;;;;;;5489930;26;20215;-54
2024/04/15 04:56:31;;;;;;;20.67;6.00;;;;;;;;;;5484981;26;20549;-53
2024/04/15 04:58:57;;;;;;;27.00;5.32;;;;;;;;;;5503002;26;20013;-55
2024/04/15 05:01:22;;;;;;;19.38;4.28;;;;;;;;;;5500245;26;20059;-57
2024/04/15 05:03:49;;;;;;;17.30;4.67;;;;;;;;;;5504555;26;20059;-53
2024/04/15 05:06:15;;;;;;;20.00;4.90;;;;;;;;;;5503238;26;20002;-50
2024/04/15 05:08:42;;;;;;;17.75;4.45;;;;;;;;;;5498187;26;20009;-52
2024/04/15 05:11:08;;;;;;;19.17;5.32;;;;;;;;;;5504612;26;20020;-55
2024/04/15 05:13:33;;;;;;;19.60;5.20;;;;;;;;;;5498983;26;20019;-54
2024/04/15 05:16:02;;;;;;;18.00;5.43;;;;;;;;;;5503253;26;20232;-55
2024/04/15 05:18:27;;;;;;;18.75;5.15;;;;;;;;;;5498129;26;20009;-54
2024/04/15 05:20:52;;;;;;;23.27;5.67;;;;;;;;;;5502021;26;20006;-54
2024/04/15 05:23:18;;;;;;;16.67;5.47;;;;;;;;;;5498055;26;20006;-54
2024/04/15 05:25:43;;;;;;;14.30;4.33;;;;;;;;;;5501346;26;20026;-53
2024/04/15 05:28:08;;;;;;;20.40;4.70;;;;;;;;;;5504102;26;19994;-55
2024/04/15 05:30:33;;;;;;;21.77;4.93;;;;;;;;;;5498653;26;20013;-58
2024/04/15 05:32:59;;;;;;;21.13;5.50;;;;;;;;;;5498211;26;20041;-52
2024/04/15 05:35:24;;;;;;;19.30;5.20;;;;;;;;;;5497902;26;20011;-54
2024/04/15 05:37:50;;;;;;;27.00;6.53;;;;;;;;;;5487436;26;20006;-53
2024/04/15 05:40:16;;;;;;;24.58;5.65;;;;;;;;;;5489395;26;20002;-52
2024/04/15 05:42:41;;;;;;;22.30;6.00;;;;;;;;;;5495585;26;20002;-55
2024/04/15 05:45:07;;;;;;;16.17;5.82;;;;;;;;;;5485356;26;20236;-55
2024/04/15 05:47:32;;;;;;;19.57;5.53;;;;;;;;;;5492849;26;20029;-56
2024/04/15 05:49:57;;;;;;;18.97;5.70;;;;;;;;;;5483160;26;20006;-51
2024/04/15 05:52:22;;;;;;;16.43;5.27;;;;;;;;;;5485973;26;20052;-54
2024/04/15 05:54:48;;;;;;;22.37;4.70;;;;;;;;;;5489925;26;20006;-53
2024/04/15 05:57:13;;;;;;;18.92;5.75;;;;;;;;;;5496558;26;20009;-54
2024/04/15 05:59:39;;;;;;;15.00;4.80;;;;;;;;;;5501932;26;20002;-54
2024/04/15 06:02:05;;;;;;;19.02;4.80;;;;;;;;;;5499327;26;22375;-54
2024/04/15 06:04:35;;;;;;;11.82;5.03;;;;;;;;;;5483252;26;20010;-51
2024/04/15 06:07:01;;;;;;;19.95;4.72;;;;;;;;;;5491883;26;19998;-53
2024/04/15 06:09:27;;;;;;;20.90;5.18;;;;;;;;;;5485213;26;19998;-53
2024/04/15 06:11:52;;;;;;;15.05;6.10;;;;;;;;;;5485055;26;20038;-51
2024/04/15 06:14:21;;;;;;;24.60;5.80;;;;;;;;;;5485496;26;20022;-54
2024/04/15 06:16:47;;;;;;;14.20;5.53;;;;;;;;;;5483651;26;19998;-52
2024/04/15 06:19:12;;;;;;;15.05;5.90;;;;;;;;;;5489393;26;19998;-55
2024/04/15 06:21:38;;;;;;;15.70;5.07;;;;;;;;;;5486111;26;20002;-57
2024/04/15 06:24:03;;;;;;;16.97;4.87;;;;;;;;;;5487558;26;20267;-55
2024/04/15 06:26:29;;;;;;;18.25;5.47;;;;;;;;;;5483870;26;20014;-51
2024/04/15 06:28:54;;;;;;;22.57;4.10;;;;;;;;;;5484755;26;20038;-53
2024/04/15 06:31:20;;;;;;;13.98;4.40;;;;;;;;;;5482907;26;20017;-53
2024/04/15 06:33:45;;;;;;;27.87;5.93;;;;;;;;;;5491380;26;20013;-53
2024/04/15 06:36:11;;;;;;;20.10;4.33;;;;;;;;;;5491256;26;20227;-51
2024/04/15 06:38:36;;;;;;;15.10;4.87;;;;;;;;;;5491720;26;20232;-54
2024/04/15 06:41:02;;;;;;;10.30;3.47;;;;;;;;;;5491260;26;20268;-59
2024/04/15 06:43:30;;;;;;;15.63;4.28;;;;;;;;;;5492368;26;20005;-57
2024/04/15 06:45:55;;;;;;;13.82;4.45;;;;;;;;;;5486868;26;20009;-55
2024/04/15 06:48:21;;;;;;;14.57;4.07;;;;;;;;;;5486523;26;19990;-54
2024/04/15 06:50:46;;;;;;;18.13;4.33;;;;;;;;;;5488076;26;20223;-55
2024/04/15 06:53:11;;;;;;;10.40;3.37;;;;;;;;;;5489104;26;20267;-53
2024/04/15 06:55:37;;;;;;;17.77;3.38;;;;;;;;;;5489569;26;20017;-51
2024/04/15 06:58:03;;;;;;;23.50;3.80;;;;;;;;;;5492413;26;20002;-55
2024/04/15 07:00:29;;;;;;;13.95;2.95;;;;;;;;;;5497334;26;20043;-56
2024/04/15 07:02:54;;;;;;;24.60;3.37;;;;;;;;;;5493952;26;20005;-54
2024/04/15 07:05:20;;;;;;;9.03;2.53;;;;;;;;;;5493022;26;20048;-56
2024/04/15 07:07:45;;;;;;;15.32;3.88;;;;;;;;;;5488414;26;19998;-52
2024/04/15 07:10:11;;;;;;;14.60;4.25;;;;;;;;;;5490010;26;19999;-55
2024/04/15 07:12:36;;;;;;;19.38;3.55;;;;;;;;;;5487714;26;19998;-55
2024/04/15 07:15:02;;;;;;;10.97;2.30;;;;;;;;;;5491690;26;20009;-56
2024/04/15 07:17:27;;;;;;;12.27;3.30;;;;;;;;;;5495628;26;19999;-57
2024/04/15 07:19:52;;;;;;;16.40;3.07;;;;;;;;;;5492122;26;20006;-58
2024/04/15 07:22:18;;;;;;;18.80;3.60;;;;;;;;;;5501789;26;19998;-55
2024/04/15 07:24:43;;;;;;;11.23;3.30;;;;;;;;;;5504880;26;20055;-54
2024/04/15 07:27:09;;;;;;;8.25;3.38;;;;;;;;;;5498078;26;20014;-52
2024/04/15 07:29:35;;;;;;;17.00;3.97;;;;;;;;;;5502104;26;20006;-56
2024/04/15 07:32:01;;;;;;;16.10;3.45;;;;;;;;;;5503401;26;19998;-55
2024/04/15 07:34:27;;;;;;;23.70;5.10;;;;;;;;;;5504432;26;20009;-54
2024/04/15 07:36:52;;;;;;;15.13;2.88;;;;;;;;;;5500055;26;20224;-57
2024/04/15 07:39:18;;;;;;;22.27;3.90;;;;;;;;;;5501586;26;20008;-56
2024/04/15 07:41:43;;;;;;;17.27;4.73;;;;;;;;;;5501847;26;19998;-54
2024/04/15 07:44:08;;;;;;;15.77;4.43;;;;;;;;;;5500984;26;20019;-55
2024/04/15 07:46:33;;;;;;;15.43;4.10;;;;;;;;;;5491210;26;20044;-54
2024/04/15 07:48:59;;;;;;;13.30;3.43;;;;;;;;;;5495510;26;20002;-55
2024/04/15 07:51:24;;;;;;;13.13;4.37;;;;;;;;;;5499178;26;20009;-55
2024/04/15 07:53:49;;;;;;;22.30;5.60;;;;;;;;;;5494332;26;19994;-57
2024/04/15 07:56:15;;;;;;;20.97;7.20;;;;;;;;;;5494214;26;19999;-54
2024/04/15 07:58:40;;;;;;;20.27;7.83;;;;;;;;;;5496407;26;20075;-56
2024/04/15 08:01:06;;;;;;;22.73;7.20;;;;;;;;;;5499446;26;20018;-53
2024/04/15 08:03:31;;;;;;;19.55;5.18;;;;;;;;;;5499377;26;19994;-54
2024/04/15 08:05:57;;;;;;;27.40;9.52;;;;;;;;;;5501693;26;19998;-55
2024/04/15 08:08:22;;;;;;;56.20;16.37;;;;;;;;;;5503276;26;19995;-56
2024/04/15 08:10:48;;;;;;;17.73;5.33;;;;;;;;;;5496247;26;20287;-54
2024/04/15 08:13:14;;;;;;;28.40;8.65;;;;;;;;;;5495069;26;20014;-55
2024/04/15 08:15:42;;;;;;;21.50;6.28;;;;;;;;;;5486060;26;20016;-53
2024/04/15 08:18:07;;;;;;;23.03;8.20;;;;;;;;;;5495185;26;20010;-57
2024/04/15 08:20:33;;;;;;;25.60;7.75;;;;;;;;;;5487944;26;20258;-51
2024/04/15 08:22:59;;;;;;;26.25;7.78;;;;;;;;;;5492457;26;20008;-55
2024/04/15 08:25:25;;;;;;;;;;;;;;;;;;5495497;26;20002;-55
2024/04/15 08:27:50;;;;;;;12.07;5.73;;;;;;;;;;5489540;26;19944;-54
2024/04/15 08:30:16;;;;;;;16.67;6.60;;;;;;;;;;5490619;26;19990;-52
2024/04/15 08:32:41;;;;;;;17.58;6.70;;;;;;;;;;5494115;26;20082;-55
2024/04/15 08:35:07;;;;;;;19.87;6.53;;;;;;;;;;5492683;26;20002;-56
2024/04/15 08:37:32;;;;;;;12.00;5.70;;;;;;;;;;5488957;26;19994;-54
2024/04/15 08:39:59;;;;;;;16.20;5.57;;;;;;;;;;5486047;26;20040;-57
2024/04/15 08:42:24;;;;;;;15.60;5.25;;;;;;;;;;5485308;26;20006;-54
2024/04/15 08:44:50;;;;;;;11.07;4.45;;;;;;;;;;5490702;26;20022;-55
2024/04/15 08:47:22;;;;;;;17.23;4.95;;;;;;;;;;5489709;26;20055;-55
2024/04/15 08:49:48;;;;;;;15.70;4.90;;;;;;;;;;5493052;26;20002;-54
2024/04/15 08:52:16;;;;;;;14.23;4.80;;;;;;;;;;5495127;26;20224;-53
2024/04/15 08:54:41;;;;;;;24.70;6.07;;;;;;;;;;5480781;26;20263;-57
2024/04/15 08:57:09;;;;;;;15.13;4.30;;;;;;;;;;5496669;26;20228;-57
2024/04/15 08:59:36;;;;;;;16.40;5.13;;;;;;;;;;5496545;26;20028;-58
2024/04/15 09:02:01;;;;;;;13.63;3.70;;;;;;;;;;5497446;26;20235;-58
2024/04/15 09:04:26;;;;;;;10.57;3.40;;;;;;;;;;5491390;26;20347;-57
2024/04/15 09:06:52;;;;;;;12.68;3.15;;;;;;;;;;5497384;26;20002;-55
2024/04/15 09:09:18;;;;;;;37.07;4.37;;;;;;;;;;5496332;26;19997;-59
2024/04/15 09:11:46;;;;;;;11.23;2.90;;;;;;;;;;5487152;26;20001;-58
2024/04/15 09:14:12;;;;;;;8.43;3.33;;;;;;;;;;5497412;26;20219;-58
2024/04/15 09:16:38;;;;;;;12.90;3.10;;;;;;;;;;5493887;26;20274;-61
2024/04/15 09:19:06;;;;;;;10.50;3.22;;;;;;;;;;5493703;26;20224;-57
2024/04/15 09:21:32;;;;;;;14.13;2.83;;;;;;;;;;5492434;26;19994;-59
2024/04/15 09:23:57;;;;;;;23.07;3.37;;;;;;;;;;5497077;26;20231;-59
2024/04/15 09:26:22;;;;;;;15.57;3.27;;;;;;;;;;5489698;26;19998;-59
2024/04/15 09:28:48;;;;;;;12.90;2.83;;;;;;;;;;5495054;26;20001;-55
2024/04/15 09:31:13;;;;;;;12.27;2.30;;;;;;;;;;5497996;26;19990;-60
2024/04/15 09:33:40;;;;;;;7.82;2.67;;;;;;;;;;5493693;26;20046;-58
2024/04/15 09:36:05;;;;;;;8.32;3.00;;;;;;;;;;5488780;26;19999;-57
2024/04/15 09:38:32;;;;;;;8.30;2.78;;;;;;;;;;5489860;26;20074;-57
2024/04/15 09:40:58;;;;;;;11.05;2.45;;;;;;;;;;5489247;26;20006;-58
2024/04/15 09:43:23;;;;;;;10.75;2.47;;;;;;;;;;5488452;26;20005;-58
2024/04/15 09:45:49;;;;;;;11.77;2.20;;;;;;;;;;5496113;26;19990;-59
2024/04/15 09:48:22;;;;;;;17.83;2.27;;;;;;;;;;5489965;26;19994;-56
2024/04/15 09:50:54;;;;;;;16.43;3.00;;;;;;;;;;5491055;26;20013;-60
2024/04/15 09:53:30;;;;;;;9.85;2.88;;;;;;;;;;5483448;26;20232;-59
2024/04/15 09:56:01;;;;;;;12.00;2.80;;;;;;;;;;5484421;26;20010;-57
2024/04/15 09:58:28;;;;;;;8.80;3.13;;;;;;;;;;5487700;26;20238;-61
2024/04/15 10:00:54;;;;;;;9.27;2.93;;;;;;;;;;5489167;26;20204;-57
2024/04/15 10:03:21;;;;;;;8.68;3.10;;;;;;;;;;5491040;26;20216;-57
2024/04/15 10:05:46;;;;;;;;;;;;;;;;;;5495064;26;19994;-58
2024/04/15 10:08:13;;;;;;;16.43;4.03;;;;;;;;;;5488996;26;20154;-58
2024/04/15 10:10:41;;;;;;;11.50;2.97;;;;;;;;;;5492979;26;20018;-57
2024/04/15 10:13:07;;;;;;;12.67;4.23;;;;;;;;;;5500829;26;20239;-58
2024/04/15 10:15:38;;;;;;;13.23;3.63;;;;;;;;;;5499649;26;20289;-58
2024/04/15 10:18:03;;;;;;;11.35;4.93;;;;;;;;;;5499209;25;20291;-61
2024/04/15 10:20:39;;;;;;;14.68;4.00;;;;;;;;;;5483270;26;19998;-60
2024/04/15 10:23:06;;;;;;;15.20;3.47;;;;;;;;;;5492800;26;20013;-61
2024/04/15 10:25:32;;;;;;;19.20;3.63;;;;;;;;;;5497126;26;20216;-57
2024/04/15 10:27:58;;;;;;;17.10;4.00;;;;;;;;;;5490833;26;20225;-59
2024/04/15 10:30:31;;;;;;;13.30;4.43;;;;;;;;;;5492059;26;19995;-60
2024/04/15 10:33:02;;;;;;;14.77;4.23;;;;;;;;;;5484945;26;20220;-62
2024/04/15 10:35:28;;;;;;;16.83;4.63;;;;;;;;;;5497809;26;20311;-62
2024/04/15 10:37:57;;;;;;;17.00;5.53;;;;;;;;;;5492228;26;20223;-63
2024/04/15 10:40:40;;;;;;;23.50;5.00;;;;;;;;;;5483219;26;19994;-61
2024/04/15 10:43:06;;;;;;;19.77;5.93;;;;;;;;;;5487810;26;19998;-63
2024/04/15 10:45:32;;;;;;;21.40;5.40;;;;;;;;;;5487049;26;20067;-62
2024/04/15 10:47:58;;;;;;;19.95;5.18;;;;;;;;;;5493780;26;20018;-61
2024/04/15 10:50:25;;;;;;;12.95;4.63;;;;;;;;;;5499178;26;20002;-62
2024/04/15 10:52:50;;;;;;;16.70;4.57;;;;;;;;;;5495127;26;20052;-61
2024/04/15 10:55:17;;;;;;;12.60;4.45;;;;;;;;;;5487944;26;20108;-62
2024/04/15 10:57:44;;;;;;;16.40;4.93;;;;;;;;;;5488824;26;20011;-62
2024/04/15 11:00:11;;;;;;;13.57;4.28;;;;;;;;;;5490097;26;20013;-61
2024/04/15 11:02:38;;;;;;;15.52;4.40;;;;;;;;;;5489046;26;20005;-61
2024/04/15 11:05:05;;;;;;;18.17;5.07;;;;;;;;;;5487108;26;20013;-62
2024/04/15 11:07:31;;;;;;;27.13;5.10;;;;;;;;;;5494419;26;20003;-60
2024/04/15 11:09:57;;;;;;;22.80;5.27;;;;;;;;;;5484503;26;19995;-62
2024/04/15 11:12:22;;;;;;;16.42;6.10;;;;;;;;;;5489688;26;20006;-61
2024/04/15 11:14:52;;;;;;;15.83;5.90;;;;;;;;;;5488446;26;19995;-62
2024/04/15 11:17:17;;;;;;;16.63;5.43;;;;;;;;;;5487777;26;19998;-63
2024/04/15 11:19:43;;;;;;;11.63;5.53;;;;;;;;;;5493278;26;20001;-63
2024/04/15 11:22:09;;;;;;;25.13;6.32;;;;;;;;;;5501478;26;20054;-64
2024/04/15 11:24:35;;;;;;;18.20;5.90;;;;;;;;;;5500163;26;20010;-63
2024/04/15 11:27:08;;;;;;;15.30;5.95;;;;;;;;;;5499054;26;20043;-64
2024/04/15 11:29:34;;;;;;;12.90;5.60;;;;;;;;;;5503301;26;20072;-62
2024/04/15 11:31:59;;;;;;;14.87;5.07;;;;;;;;;;5500468;26;20288;-62
2024/04/15 11:34:25;;;;;;;23.10;5.90;;;;;;;;;;5501806;26;20240;-62
2024/04/15 11:36:50;;;;;;;19.80;5.67;;;;;;;;;;5496609;26;20282;-62
2024/04/15 11:39:16;;;;;;;21.17;5.07;;;;;;;;;;5492175;26;20243;-62
2024/04/15 11:41:42;;;;;;;21.20;7.07;;;;;;;;;;5500875;26;19998;-62
2024/04/15 11:44:09;;;;;;;15.98;5.65;;;;;;;;;;5499666;26;20032;-62
2024/04/15 11:46:38;;;;;;;21.90;4.63;;;;;;;;;;5497962;26;20017;-62
2024/04/15 11:49:03;;;;;;;18.85;5.57;;;;;;;;;;5499445;26;20017;-63
2024/04/15 11:51:29;;;;;;;18.33;5.73;;;;;;;;;;5497105;26;20006;-63
2024/04/15 11:53:55;;;;;;;17.27;5.07;;;;;;;;;;5487403;26;20216;-63
2024/04/15 11:56:21;;;;;;;23.52;4.93;;;;;;;;;;5484960;26;19998;-62
2024/04/15 11:58:47;;;;;;;23.33;5.47;;;;;;;;;;5486607;26;20052;-62
2024/04/15 12:01:13;;;;;;;8.07;4.30;;;;;;;;;;5489436;26;19994;-64
2024/04/15 12:03:38;;;;;;;18.87;5.03;;;;;;;;;;5489489;26;19994;-62
2024/04/15 12:06:05;;;;;;;15.20;5.00;;;;;;;;;;5492794;26;20224;-64
2024/04/15 12:08:31;;;;;;;16.80;4.30;;;;;;;;;;5490199;26;20002;-62
2024/04/15 12:10:56;;;;;;;10.45;3.95;;;;;;;;;;5488196;26;20793;-63
2024/04/15 12:13:21;;;;;;;7.00;3.37;;;;;;;;;;5495040;26;20002;-63
2024/04/15 12:15:47;;;;;;;16.17;3.72;;;;;;;;;;5489770;26;19998;-63
2024/04/15 12:18:12;;;;;;;10.80;4.20;;;;;;;;;;5493516;26;19998;-62
2024/04/15 12:20:38;;;;;;;8.00;3.83;;;;;;;;;;5492140;26;20247;-63
2024/04/15 12:23:03;;;;;;;9.45;3.50;;;;;;;;;;5495000;26;19994;-62
2024/04/15 12:25:29;;;;;;;15.55;4.85;;;;;;;;;;5500571;26;20002;-63
2024/04/15 12:27:54;;;;;;;13.00;4.57;;;;;;;;;;5499093;26;20005;-62
2024/04/15 12:30:20;;;;;;;23.30;4.90;;;;;;;;;;5500999;26;20450;-62
2024/04/15 12:32:45;;;;;;;15.60;4.27;;;;;;;;;;5502719;26;20009;-62
2024/04/15 12:35:10;;;;;;;11.23;3.70;;;;;;;;;;5499454;26;19998;-62
2024/04/15 12:37:38;;;;;;;13.23;4.03;;;;;;;;;;5491219;26;20010;-62
2024/04/15 12:40:05;;;;;;;17.73;4.45;;;;;;;;;;5490040;26;20268;-66
2024/04/15 12:42:31;;;;;;;9.17;4.00;;;;;;;;;;5484982;26;19987;-62
2024/04/15 12:44:56;;;;;;;8.82;4.38;;;;;;;;;;5493921;26;20231;-61
2024/04/15 12:47:21;;;;;;;13.73;4.28;;;;;;;;;;5490619;26;20011;-62
2024/04/15 12:49:47;;;;;;;14.63;4.63;;;;;;;;;;5490049;26;20008;-62
2024/04/15 12:52:13;;;;;;;13.40;3.95;;;;;;;;;;5485484;26;20495;-62
2024/04/15 12:54:38;;;;;;;20.10;4.20;;;;;;;;;;5494274;26;20002;-63
2024/04/15 12:57:03;;;;;;;15.20;3.90;;;;;;;;;;5488313;26;22138;-63
2024/04/15 12:59:29;;;;;;;12.43;4.03;;;;;;;;;;5491741;26;19994;-61
2024/04/15 13:01:56;;;;;;;20.33;3.77;;;;;;;;;;5494623;26;20016;-63
2024/04/15 13:04:22;;;;;;;39.33;4.95;;;;;;;;;;5495015;26;20018;-62
2024/04/15 13:06:47;;;;;;;6.38;1.10;;;;;;;;;;5486670;26;20021;-64
2024/04/15 13:09:13;;;;;;;4.80;1.33;;;;;;;;;;5491020;26;20021;-64
2024/04/15 13:11:38;;;;;;;4.47;1.30;;;;;;;;;;5494721;26;20022;-64
2024/04/15 13:14:04;;;;;;;9.27;1.88;;;;;;;;;;5495933;26;20005;-63
2024/04/15 13:16:29;;;;;;;9.38;1.83;;;;;;;;;;5497340;26;19998;-63
2024/04/15 13:18:55;;;;;;;12.67;3.17;;;;;;;;;;5500824;26;20002;-64
2024/04/15 13:21:20;;;;;;;35.45;3.60;;;;;;;;;;5498611;26;20799;-62
2024/04/15 13:23:49;;;;;;;21.80;5.00;;;;;;;;;;5498947;26;20012;-61
2024/04/15 13:26:15;;;;;;;22.50;2.88;;;;;;;;;;5500904;26;19994;-63
2024/04/15 13:28:40;;;;;;;10.17;2.50;;;;;;;;;;5493034;26;19998;-62
2024/04/15 13:31:07;;;;;;;21.48;2.00;;;;;;;;;;5479053;26;20006;-63
2024/04/15 13:33:32;;;;;;;12.38;3.53;;;;;;;;;;5489740;26;20051;-62
2024/04/15 13:35:58;;;;;;;1.83;1.13;;;;;;;;;;5488583;26;20010;-62
2024/04/15 13:38:25;;;;;;;4.03;1.30;;;;;;;;;;5485685;26;20010;-62
2024/04/15 13:40:50;;;;;;;15.90;2.50;;;;;;;;;;5491167;26;20002;-63
2024/04/15 13:43:16;;;;;;;10.90;3.10;;;;;;;;;;5485739;26;20257;-62
2024/04/15 13:45:41;;;;;;;17.42;4.63;;;;;;;;;;5493841;26;20013;-62
2024/04/15 13:48:07;;;;;;;7.90;2.50;;;;;;;;;;5501531;26;20010;-62
2024/04/15 13:50:32;;;;;;;4.90;1.80;;;;;;;;;;5498528;26;20219;-62
2024/04/15 13:52:58;;;;;;;11.88;3.00;;;;;;;;;;5489284;26;20006;-62
2024/04/15 13:55:23;;;;;;;5.43;1.63;;;;;;;;;;5485341;26;19998;-62
2024/04/15 13:57:49;;;;;;;5.45;1.83;;;;;;;;;;5478610;26;20020;-61
2024/04/15 14:00:14;;;;;;;9.33;2.67;;;;;;;;;;5481025;26;20018;-61
2024/04/15 14:02:39;;;;;;;9.57;2.83;;;;;;;;;;5500928;26;20009;-61
2024/04/15 14:05:09;;;;;;;3.93;2.23;;;;;;;;;;5492869;26;20002;-61
2024/04/15 14:07:37;;;;;;;6.00;1.70;;;;;;;;;;5482635;26;20231;-61
2024/04/15 14:10:03;;;;;;;7.78;1.73;;;;;;;;;;5483480;26;19994;-61
2024/04/15 14:12:29;;;;;;;9.50;1.70;;;;;;;;;;5488307;26;20012;-62
2024/04/15 14:14:55;;;;;;;5.07;1.40;;;;;;;;;;5488160;26;20287;-62
2024/04/15 14:17:21;;;;;;;9.60;1.70;;;;;;;;;;5484955;26;20236;-62
2024/04/15 14:19:46;;;;;;;9.97;2.50;;;;;;;;;;5483882;26;20014;-61
2024/04/15 14:22:12;;;;;;;9.65;1.60;;;;;;;;;;5486878;26;20491;-62
2024/04/15 14:24:40;;;;;;;8.70;1.60;;;;;;;;;;5485284;26;19999;-62